Impacts TAF Board INFO
FOR SITUATIONAL AWARENESS. NOT TO BE USED FOR FLIGHT PLANNING PURPOSES.
IDs:

KTLH - Tallahassee Intl, FL, US

Issued at 0533 UTC 16 Aug 2018
Updated at 1024 UTC 16 Aug 2018
Potential Impact None Slight Moderate High
Time<<16/23Z 17/00Z 17/01Z 17/02Z 17/03Z 17/04Z 17/05Z 17/06Z 17/07Z 17/08Z 17/09Z 17/10Z 17/11Z>>
Type PRVL PRVL PRVL PRVL PRVL PRVL PRVL
VIS >6 >6 >6 >6 >6 >6 >6
CIG 40 40 40 40 40 40 40
Cover BKN BKN BKN BKN BKN BKN BKN
FltCat VFR VFR VFR VFR VFR VFR VFR
WX -- -- -- -- -- -- --
WDir 180 180 180 180 180 180 180
WSpd 3 3 3 3 3 3 3
WGst -- -- -- -- -- -- --

Raw TAF
KTLH 160533Z 1606/1706 00000KT P6SM BKN250
  FM161500 20006KT P6SM VCTS BKN035CB
  FM162200 18003KT P6SM BKN040


METAR Board
Radar Display
Forecast Discussion

FOR SITUATIONAL AWARENESS. NOT TO BE USED FOR FLIGHT PLANNING PURPOSES.